sensor_id;sensor_type;location;lat;lon;timestamp;temperature;humidity
19868;DHT22;10096;51.112;6.776;2023-06-05T00:02:18;16.90;99.90
19868;DHT22;10096;51.112;6.776;2023-06-05T00:04:46;17.00;99.90
19868;DHT22;10096;51.112;6.776;2023-06-05T00:07:14;16.90;99.90
19868;DHT22;10096;51.112;6.776;2023-06-05T00:09:42;16.90;99.90
19868;DHT22;10096;51.112;6.776;2023-06-05T00:12:11;16.80;99.90
19868;DHT22;10096;51.112;6.776;2023-06-05T00:14:39;16.80;99.90
19868;DHT22;10096;51.112;6.776;2023-06-05T00:17:09;16.70;99.90
19868;DHT22;10096;51.112;6.776;2023-06-05T00:19:37;16.70;99.90
19868;DHT22;10096;51.112;6.776;2023-06-05T00:22:05;16.70;99.90
19868;DHT22;10096;51.112;6.776;2023-06-05T00:24:33;16.60;99.90
19868;DHT22;10096;51.112;6.776;2023-06-05T00:27:01;16.50;99.90
19868;DHT22;10096;51.112;6.776;2023-06-05T00:29:30;16.50;99.90
19868;DHT22;10096;51.112;6.776;2023-06-05T00:31:58;16.50;99.90
19868;DHT22;10096;51.112;6.776;2023-06-05T00:34:27;16.50;99.90
19868;DHT22;10096;51.112;6.776;2023-06-05T00:36:55;16.40;99.90
19868;DHT22;10096;51.112;6.776;2023-06-05T00:39:24;16.40;99.90
19868;DHT22;10096;51.112;6.776;2023-06-05T00:41:52;16.50;99.90
19868;DHT22;10096;51.112;6.776;2023-06-05T00:44:19;16.50;99.90
19868;DHT22;10096;51.112;6.776;2023-06-05T00:46:51;16.60;99.90
19868;DHT22;10096;51.112;6.776;2023-06-05T00:49:20;16.40;99.90
19868;DHT22;10096;51.112;6.776;2023-06-05T00:51:48;16.30;99.90
19868;DHT22;10096;51.112;6.776;2023-06-05T00:54:16;16.30;99.90
19868;DHT22;10096;51.112;6.776;2023-06-05T00:56:44;16.30;99.90
19868;DHT22;10096;51.112;6.776;2023-06-05T00:59:17;15.80;99.90
19868;DHT22;10096;51.112;6.776;2023-06-05T01:01:45;16.20;99.90
19868;DHT22;10096;51.112;6.776;2023-06-05T01:04:15;16.10;99.90
19868;DHT22;10096;51.112;6.776;2023-06-05T01:06:43;16.20;99.90
19868;DHT22;10096;51.112;6.776;2023-06-05T01:09:11;16.10;99.90
19868;DHT22;10096;51.112;6.776;2023-06-05T01:11:43;16.00;99.90
19868;DHT22;10096;51.112;6.776;2023-06-05T01:14:16;16.00;99.90
19868;DHT22;10096;51.112;6.776;2023-06-05T01:16:48;16.00;99.90
19868;DHT22;10096;51.112;6.776;2023-06-05T01:19:19;16.20;99.90
19868;DHT22;10096;51.112;6.776;2023-06-05T01:21:50;15.90;99.90
19868;DHT22;10096;51.112;6.776;2023-06-05T01:24:20;15.90;99.90
19868;DHT22;10096;51.112;6.776;2023-06-05T01:27:04;15.70;99.90
19868;DHT22;10096;51.112;6.776;2023-06-05T01:29:37;15.50;99.90
19868;DHT22;10096;51.112;6.776;2023-06-05T01:32:13;15.70;99.90
19868;DHT22;10096;51.112;6.776;2023-06-05T01:34:43;15.80;99.90
19868;DHT22;10096;51.112;6.776;2023-06-05T01:37:14;15.70;99.90
19868;DHT22;10096;51.112;6.776;2023-06-05T01:39:47;15.70;99.90
19868;DHT22;10096;51.112;6.776;2023-06-05T01:42:15;15.70;99.90
19868;DHT22;10096;51.112;6.776;2023-06-05T01:44:43;15.70;99.90
19868;DHT22;10096;51.112;6.776;2023-06-05T01:47:12;15.70;99.90
19868;DHT22;10096;51.112;6.776;2023-06-05T01:49:39;15.60;99.90
19868;DHT22;10096;51.112;6.776;2023-06-05T01:52:07;15.60;99.90
19868;DHT22;10096;51.112;6.776;2023-06-05T01:54:35;15.60;99.90
19868;DHT22;10096;51.112;6.776;2023-06-05T01:57:06;15.50;99.90
19868;DHT22;10096;51.112;6.776;2023-06-05T01:59:35;15.50;99.90
19868;DHT22;10096;51.112;6.776;2023-06-05T02:02:02;15.20;99.90
19868;DHT22;10096;51.112;6.776;2023-06-05T02:04:32;15.50;99.90
19868;DHT22;10096;51.112;6.776;2023-06-05T02:07:00;15.40;99.90
19868;DHT22;10096;51.112;6.776;2023-06-05T02:09:29;15.50;99.90
19868;DHT22;10096;51.112;6.776;2023-06-05T02:11:58;15.50;99.90
19868;DHT22;10096;51.112;6.776;2023-06-05T02:14:32;15.40;99.90
19868;DHT22;10096;51.112;6.776;2023-06-05T02:17:03;15.40;99.90
19868;DHT22;10096;51.112;6.776;2023-06-05T02:19:32;15.30;99.90
19868;DHT22;10096;51.112;6.776;2023-06-05T02:22:00;15.30;99.90
19868;DHT22;10096;51.112;6.776;2023-06-05T02:24:27;15.30;99.90
19868;DHT22;10096;51.112;6.776;2023-06-05T02:26:57;15.30;99.90
19868;DHT22;10096;51.112;6.776;2023-06-05T02:29:25;15.20;99.90
19868;DHT22;10096;51.112;6.776;2023-06-05T02:31:54;15.10;99.90
19868;DHT22;10096;51.112;6.776;2023-06-05T02:34:24;15.10;99.90
19868;DHT22;10096;51.112;6.776;2023-06-05T02:36:51;15.30;99.90
19868;DHT22;10096;51.112;6.776;2023-06-05T02:39:24;15.10;99.90
19868;DHT22;10096;51.112;6.776;2023-06-05T02:41:54;14.90;99.90
19868;DHT22;10096;51.112;6.776;2023-06-05T02:44:22;15.00;99.90
19868;DHT22;10096;51.112;6.776;2023-06-05T02:46:50;15.20;99.90
19868;DHT22;10096;51.112;6.776;2023-06-05T02:49:22;15.00;99.90
19868;DHT22;10096;51.112;6.776;2023-06-05T02:51:49;15.00;99.90
19868;DHT22;10096;51.112;6.776;2023-06-05T02:54:17;15.00;99.90
19868;DHT22;10096;51.112;6.776;2023-06-05T02:56:46;15.00;99.90
19868;DHT22;10096;51.112;6.776;2023-06-05T02:59:15;15.00;99.90
19868;DHT22;10096;51.112;6.776;2023-06-05T03:01:43;15.10;99.90
19868;DHT22;10096;51.112;6.776;2023-06-05T03:04:13;14.90;99.90
19868;DHT22;10096;51.112;6.776;2023-06-05T03:06:50;14.90;99.90
19868;DHT22;10096;51.112;6.776;2023-06-05T03:09:19;14.60;99.90
19868;DHT22;10096;51.112;6.776;2023-06-05T03:11:48;14.90;1.00
19868;DHT22;10096;51.112;6.776;2023-06-05T03:14:15;14.80;1.00
19868;DHT22;10096;51.112;6.776;2023-06-05T03:16:44;14.80;1.00
19868;DHT22;10096;51.112;6.776;2023-06-05T03:19:11;14.80;1.00
19868;DHT22;10096;51.112;6.776;2023-06-05T03:21:39;14.80;1.00
19868;DHT22;10096;51.112;6.776;2023-06-05T03:24:10;14.80;1.00
19868;DHT22;10096;51.112;6.776;2023-06-05T03:26:42;14.60;1.00
19868;DHT22;10096;51.112;6.776;2023-06-05T03:29:10;14.80;1.00
19868;DHT22;10096;51.112;6.776;2023-06-05T03:31:40;14.80;1.00
19868;DHT22;10096;51.112;6.776;2023-06-05T03:34:12;14.80;1.00
19868;DHT22;10096;51.112;6.776;2023-06-05T03:36:40;14.70;1.00
19868;DHT22;10096;51.112;6.776;2023-06-05T03:39:09;14.70;1.00
19868;DHT22;10096;51.112;6.776;2023-06-05T03:41:38;14.90;1.00
19868;DHT22;10096;51.112;6.776;2023-06-05T03:44:05;14.70;1.00
19868;DHT22;10096;51.112;6.776;2023-06-05T03:46:34;14.80;1.00
19868;DHT22;10096;51.112;6.776;2023-06-05T03:49:04;14.90;1.00
19868;DHT22;10096;51.112;6.776;2023-06-05T03:51:34;15.20;1.00
19868;DHT22;10096;51.112;6.776;2023-06-05T03:54:02;15.80;99.90
19868;DHT22;10096;51.112;6.776;2023-06-05T03:56:32;16.20;99.90
19868;DHT22;10096;51.112;6.776;2023-06-05T03:59:02;16.50;99.90
19868;DHT22;10096;51.112;6.776;2023-06-05T04:01:34;16.90;99.90
19868;DHT22;10096;51.112;6.776;2023-06-05T04:04:03;17.20;99.90
19868;DHT22;10096;51.112;6.776;2023-06-05T04:06:32;17.50;99.90
19868;DHT22;10096;51.112;6.776;2023-06-05T04:09:00;18.00;99.90
19868;DHT22;10096;51.112;6.776;2023-06-05T04:11:28;18.40;99.90
19868;DHT22;10096;51.112;6.776;2023-06-05T04:14:02;18.80;99.90
19868;DHT22;10096;51.112;6.776;2023-06-05T04:16:29;18.90;99.90
19868;DHT22;10096;51.112;6.776;2023-06-05T04:19:00;19.30;99.90
19868;DHT22;10096;51.112;6.776;2023-06-05T04:21:29;19.70;99.90
19868;DHT22;10096;51.112;6.776;2023-06-05T04:24:01;20.20;99.90
19868;DHT22;10096;51.112;6.776;2023-06-05T04:26:32;20.40;99.90
19868;DHT22;10096;51.112;6.776;2023-06-05T04:29:03;20.70;99.90
19868;DHT22;10096;51.112;6.776;2023-06-05T04:31:40;20.90;99.90
19868;DHT22;10096;51.112;6.776;2023-06-05T04:34:08;20.90;99.90
19868;DHT22;10096;51.112;6.776;2023-06-05T04:36:37;21.30;99.90
19868;DHT22;10096;51.112;6.776;2023-06-05T04:39:05;21.50;99.90
19868;DHT22;10096;51.112;6.776;2023-06-05T04:41:40;21.70;99.90
19868;DHT22;10096;51.112;6.776;2023-06-05T04:44:14;22.10;99.90
19868;DHT22;10096;51.112;6.776;2023-06-05T04:46:46;22.50;99.90
19868;DHT22;10096;51.112;6.776;2023-06-05T04:49:14;22.70;99.90
19868;DHT22;10096;51.112;6.776;2023-06-05T04:51:43;23.20;99.90
19868;DHT22;10096;51.112;6.776;2023-06-05T04:54:13;23.20;99.90
19868;DHT22;10096;51.112;6.776;2023-06-05T04:56:44;23.40;99.90
19868;DHT22;10096;51.112;6.776;2023-06-05T04:59:17;23.80;99.90
19868;DHT22;10096;51.112;6.776;2023-06-05T05:01:45;23.60;99.90
19868;DHT22;10096;51.112;6.776;2023-06-05T05:04:17;23.70;99.90
19868;DHT22;10096;51.112;6.776;2023-06-05T05:06:45;24.10;99.90
19868;DHT22;10096;51.112;6.776;2023-06-05T05:09:13;24.50;99.90
19868;DHT22;10096;51.112;6.776;2023-06-05T05:11:41;24.60;99.90
19868;DHT22;10096;51.112;6.776;2023-06-05T05:14:09;24.50;99.90
19868;DHT22;10096;51.112;6.776;2023-06-05T05:16:39;24.30;99.90
19868;DHT22;10096;51.112;6.776;2023-06-05T05:19:08;24.60;99.90
19868;DHT22;10096;51.112;6.776;2023-06-05T05:21:37;25.00;99.90
19868;DHT22;10096;51.112;6.776;2023-06-05T05:24:05;25.40;99.90
19868;DHT22;10096;51.112;6.776;2023-06-05T05:26:33;25.60;99.90
19868;DHT22;10096;51.112;6.776;2023-06-05T05:29:01;26.00;99.90
19868;DHT22;10096;51.112;6.776;2023-06-05T05:31:29;25.90;99.90
19868;DHT22;10096;51.112;6.776;2023-06-05T05:34:01;26.20;99.90
19868;DHT22;10096;51.112;6.776;2023-06-05T05:36:29;26.00;99.90
19868;DHT22;10096;51.112;6.776;2023-06-05T05:38:59;26.10;99.90
19868;DHT22;10096;51.112;6.776;2023-06-05T05:41:26;26.20;99.90
19868;DHT22;10096;51.112;6.776;2023-06-05T05:43:54;26.40;99.90
19868;DHT22;10096;51.112;6.776;2023-06-05T05:46:22;26.80;99.90
19868;DHT22;10096;51.112;6.776;2023-06-05T05:48:50;26.90;99.90
19868;DHT22;10096;51.112;6.776;2023-06-05T05:51:25;26.90;99.90
19868;DHT22;10096;51.112;6.776;2023-06-05T05:53:58;27.00;99.90
19868;DHT22;10096;51.112;6.776;2023-06-05T05:56:26;27.80;99.90
19868;DHT22;10096;51.112;6.776;2023-06-05T05:58:54;28.00;99.90
19868;DHT22;10096;51.112;6.776;2023-06-05T06:01:22;28.00;99.90
19868;DHT22;10096;51.112;6.776;2023-06-05T06:03:50;28.20;99.90
19868;DHT22;10096;51.112;6.776;2023-06-05T06:06:19;28.90;99.90
19868;DHT22;10096;51.112;6.776;2023-06-05T06:08:47;28.80;99.90
19868;DHT22;10096;51.112;6.776;2023-06-05T06:11:16;27.90;99.90
19868;DHT22;10096;51.112;6.776;2023-06-05T06:13:43;28.30;99.90
19868;DHT22;10096;51.112;6.776;2023-06-05T06:16:11;28.40;99.90
19868;DHT22;10096;51.112;6.776;2023-06-05T06:18:38;28.30;99.90
19868;DHT22;10096;51.112;6.776;2023-06-05T06:21:06;28.60;99.90
19868;DHT22;10096;51.112;6.776;2023-06-05T06:23:39;28.70;99.90
19868;DHT22;10096;51.112;6.776;2023-06-05T06:26:07;28.90;99.90
19868;DHT22;10096;51.112;6.776;2023-06-05T06:28:35;29.50;99.90
19868;DHT22;10096;51.112;6.776;2023-06-05T06:31:03;29.60;99.90
19868;DHT22;10096;51.112;6.776;2023-06-05T06:33:31;30.10;99.90
19868;DHT22;10096;51.112;6.776;2023-06-05T06:35:59;30.30;99.90
19868;DHT22;10096;51.112;6.776;2023-06-05T06:38:26;30.30;99.90
19868;DHT22;10096;51.112;6.776;2023-06-05T06:40:57;30.00;99.90
19868;DHT22;10096;51.112;6.776;2023-06-05T06:43:25;30.40;99.90
19868;DHT22;10096;51.112;6.776;2023-06-05T06:45:53;30.30;99.90
19868;DHT22;10096;51.112;6.776;2023-06-05T06:48:20;30.50;99.90
19868;DHT22;10096;51.112;6.776;2023-06-05T06:50:48;30.70;99.90
19868;DHT22;10096;51.112;6.776;2023-06-05T06:53:16;30.80;99.90
19868;DHT22;10096;51.112;6.776;2023-06-05T06:55:44;30.80;99.90
19868;DHT22;10096;51.112;6.776;2023-06-05T06:58:14;30.90;99.90
19868;DHT22;10096;51.112;6.776;2023-06-05T07:00:42;30.50;99.90
19868;DHT22;10096;51.112;6.776;2023-06-05T07:03:10;30.40;99.90
19868;DHT22;10096;51.112;6.776;2023-06-05T07:05:40;31.10;99.90
19868;DHT22;10096;51.112;6.776;2023-06-05T07:08:13;30.90;99.90
19868;DHT22;10096;51.112;6.776;2023-06-05T07:10:40;30.80;99.90
19868;DHT22;10096;51.112;6.776;2023-06-05T07:13:08;31.30;99.90
19868;DHT22;10096;51.112;6.776;2023-06-05T07:15:44;31.20;99.90
19868;DHT22;10096;51.112;6.776;2023-06-05T07:18:13;31.30;99.90
19868;DHT22;10096;51.112;6.776;2023-06-05T07:20:41;31.60;99.90
19868;DHT22;10096;51.112;6.776;2023-06-05T07:23:09;31.80;99.90
19868;DHT22;10096;51.112;6.776;2023-06-05T07:25:44;32.30;99.90
19868;DHT22;10096;51.112;6.776;2023-06-05T07:28:15;32.30;99.90
19868;DHT22;10096;51.112;6.776;2023-06-05T07:30:44;32.40;99.90
19868;DHT22;10096;51.112;6.776;2023-06-05T07:33:13;32.50;99.90
19868;DHT22;10096;51.112;6.776;2023-06-05T07:35:40;31.90;99.90
19868;DHT22;10096;51.112;6.776;2023-06-05T07:38:17;31.30;99.90
19868;DHT22;10096;51.112;6.776;2023-06-05T07:40:47;31.10;99.90
19868;DHT22;10096;51.112;6.776;2023-06-05T07:43:18;31.40;99.90
19868;DHT22;10096;51.112;6.776;2023-06-05T07:45:47;31.00;99.90
19868;DHT22;10096;51.112;6.776;2023-06-05T07:48:18;31.60;99.90
19868;DHT22;10096;51.112;6.776;2023-06-05T07:50:46;31.10;99.90
19868;DHT22;10096;51.112;6.776;2023-06-05T07:53:14;31.80;99.90
19868;DHT22;10096;51.112;6.776;2023-06-05T07:55:42;32.10;99.90
19868;DHT22;10096;51.112;6.776;2023-06-05T07:58:11;32.50;99.90
19868;DHT22;10096;51.112;6.776;2023-06-05T08:00:41;32.60;99.90
19868;DHT22;10096;51.112;6.776;2023-06-05T08:03:32;32.60;99.90
19868;DHT22;10096;51.112;6.776;2023-06-05T08:06:09;32.50;99.90
19868;DHT22;10096;51.112;6.776;2023-06-05T08:08:37;32.40;99.90
19868;DHT22;10096;51.112;6.776;2023-06-05T08:11:05;32.40;99.90
19868;DHT22;10096;51.112;6.776;2023-06-05T08:13:32;32.50;99.90
19868;DHT22;10096;51.112;6.776;2023-06-05T08:16:02;33.00;99.90
19868;DHT22;10096;51.112;6.776;2023-06-05T08:18:40;32.90;99.90
19868;DHT22;10096;51.112;6.776;2023-06-05T08:21:08;33.10;99.90
19868;DHT22;10096;51.112;6.776;2023-06-05T08:23:38;32.90;99.90
19868;DHT22;10096;51.112;6.776;2023-06-05T08:26:08;33.20;99.90
19868;DHT22;10096;51.112;6.776;2023-06-05T08:28:38;33.40;99.90
19868;DHT22;10096;51.112;6.776;2023-06-05T08:31:07;32.60;99.90
19868;DHT22;10096;51.112;6.776;2023-06-05T08:33:43;32.40;99.90
19868;DHT22;10096;51.112;6.776;2023-06-05T08:36:11;32.60;99.90
19868;DHT22;10096;51.112;6.776;2023-06-05T08:38:39;32.70;99.90
19868;DHT22;10096;51.112;6.776;2023-06-05T08:41:07;32.60;99.90
19868;DHT22;10096;51.112;6.776;2023-06-05T08:43:38;32.80;99.90
19868;DHT22;10096;51.112;6.776;2023-06-05T08:46:09;33.10;99.90
19868;DHT22;10096;51.112;6.776;2023-06-05T08:48:41;32.70;99.90
19868;DHT22;10096;51.112;6.776;2023-06-05T08:51:13;32.20;99.90
19868;DHT22;10096;51.112;6.776;2023-06-05T08:53:43;32.10;99.90
19868;DHT22;10096;51.112;6.776;2023-06-05T08:56:11;32.10;99.90
19868;DHT22;10096;51.112;6.776;2023-06-05T08:58:40;31.90;99.90
19868;DHT22;10096;51.112;6.776;2023-06-05T09:01:09;31.50;99.90
19868;DHT22;10096;51.112;6.776;2023-06-05T09:03:43;31.30;99.90
19868;DHT22;10096;51.112;6.776;2023-06-05T09:06:12;31.00;99.90
19868;DHT22;10096;51.112;6.776;2023-06-05T09:08:40;30.60;99.90
19868;DHT22;10096;51.112;6.776;2023-06-05T09:11:23;30.20;99.90
19868;DHT22;10096;51.112;6.776;2023-06-05T09:13:55;30.20;99.90
19868;DHT22;10096;51.112;6.776;2023-06-05T09:16:34;30.40;99.90
19868;DHT22;10096;51.112;6.776;2023-06-05T09:19:05;30.40;99.90
19868;DHT22;10096;51.112;6.776;2023-06-05T09:21:35;29.50;99.90
19868;DHT22;10096;51.112;6.776;2023-06-05T09:24:14;28.90;99.90
19868;DHT22;10096;51.112;6.776;2023-06-05T09:26:54;28.40;99.90
19868;DHT22;10096;51.112;6.776;2023-06-05T09:29:28;28.20;99.90
19868;DHT22;10096;51.112;6.776;2023-06-05T09:31:59;28.00;99.90
19868;DHT22;10096;51.112;6.776;2023-06-05T09:34:32;27.90;99.90
19868;DHT22;10096;51.112;6.776;2023-06-05T09:37:01;27.70;99.90
19868;DHT22;10096;51.112;6.776;2023-06-05T09:39:31;27.80;99.90
19868;DHT22;10096;51.112;6.776;2023-06-05T09:41:59;27.70;99.90
19868;DHT22;10096;51.112;6.776;2023-06-05T09:44:32;27.40;99.90
19868;DHT22;10096;51.112;6.776;2023-06-05T09:47:02;26.80;99.90
19868;DHT22;10096;51.112;6.776;2023-06-05T09:49:46;26.70;99.90
19868;DHT22;10096;51.112;6.776;2023-06-05T09:52:15;26.70;99.90
19868;DHT22;10096;51.112;6.776;2023-06-05T09:54:45;26.80;99.90
19868;DHT22;10096;51.112;6.776;2023-06-05T09:57:14;26.90;99.90
19868;DHT22;10096;51.112;6.776;2023-06-05T09:59:45;26.90;99.90
19868;DHT22;10096;51.112;6.776;2023-06-05T10:02:17;26.90;99.90
19868;DHT22;10096;51.112;6.776;2023-06-05T10:04:49;26.70;99.90
19868;DHT22;10096;51.112;6.776;2023-06-05T10:07:21;26.50;99.90
19868;DHT22;10096;51.112;6.776;2023-06-05T10:09:50;26.80;99.90
19868;DHT22;10096;51.112;6.776;2023-06-05T10:12:20;26.70;99.90
19868;DHT22;10096;51.112;6.776;2023-06-05T10:14:49;26.90;99.90
19868;DHT22;10096;51.112;6.776;2023-06-05T10:17:21;26.70;99.90
19868;DHT22;10096;51.112;6.776;2023-06-05T10:19:51;26.80;99.90
19868;DHT22;10096;51.112;6.776;2023-06-05T10:22:18;26.70;99.90
19868;DHT22;10096;51.112;6.776;2023-06-05T10:24:48;26.50;99.90
19868;DHT22;10096;51.112;6.776;2023-06-05T10:27:45;26.80;99.90
19868;DHT22;10096;51.112;6.776;2023-06-05T10:33:42;26.70;99.90
19868;DHT22;10096;51.112;6.776;2023-06-05T10:36:38;26.90;99.90
19868;DHT22;10096;51.112;6.776;2023-06-05T10:39:09;26.70;99.90
19868;DHT22;10096;51.112;6.776;2023-06-05T10:41:37;26.50;99.90
19868;DHT22;10096;51.112;6.776;2023-06-05T10:44:05;26.80;99.90
19868;DHT22;10096;51.112;6.776;2023-06-05T10:46:37;27.00;99.90
19868;DHT22;10096;51.112;6.776;2023-06-05T10:49:13;27.00;99.90
19868;DHT22;10096;51.112;6.776;2023-06-05T10:51:48;26.70;99.90
19868;DHT22;10096;51.112;6.776;2023-06-05T10:54:55;27.10;99.90
19868;DHT22;10096;51.112;6.776;2023-06-05T10:57:23;27.00;99.90
19868;DHT22;10096;51.112;6.776;2023-06-05T11:00:05;27.00;99.90
19868;DHT22;10096;51.112;6.776;2023-06-05T11:02:46;26.80;99.90
19868;DHT22;10096;51.112;6.776;2023-06-05T11:05:17;26.80;99.90
19868;DHT22;10096;51.112;6.776;2023-06-05T11:08:12;26.40;99.90
19868;DHT22;10096;51.112;6.776;2023-06-05T11:11:05;26.80;99.90
19868;DHT22;10096;51.112;6.776;2023-06-05T11:13:56;27.00;99.90
19868;DHT22;10096;51.112;6.776;2023-06-05T11:16:31;27.20;99.90
19868;DHT22;10096;51.112;6.776;2023-06-05T11:19:36;26.70;99.90
19868;DHT22;10096;51.112;6.776;2023-06-05T11:22:05;26.80;99.90
19868;DHT22;10096;51.112;6.776;2023-06-05T11:24:38;27.00;99.90
19868;DHT22;10096;51.112;6.776;2023-06-05T11:27:42;26.90;99.90
19868;DHT22;10096;51.112;6.776;2023-06-05T11:30:12;26.70;99.90
19868;DHT22;10096;51.112;6.776;2023-06-05T11:32:40;26.10;99.90
19868;DHT22;10096;51.112;6.776;2023-06-05T11:35:09;26.30;99.90
19868;DHT22;10096;51.112;6.776;2023-06-05T11:37:36;26.60;99.90
19868;DHT22;10096;51.112;6.776;2023-06-05T11:40:10;26.60;99.90
19868;DHT22;10096;51.112;6.776;2023-06-05T11:42:38;26.40;99.90
19868;DHT22;10096;51.112;6.776;2023-06-05T11:45:11;26.80;99.90
19868;DHT22;10096;51.112;6.776;2023-06-05T11:47:39;26.90;99.90
19868;DHT22;10096;51.112;6.776;2023-06-05T11:50:11;27.10;99.90
19868;DHT22;10096;51.112;6.776;2023-06-05T11:52:53;26.90;99.90
19868;DHT22;10096;51.112;6.776;2023-06-05T11:55:32;26.90;99.90
19868;DHT22;10096;51.112;6.776;2023-06-05T11:58:10;26.70;99.90
19868;DHT22;10096;51.112;6.776;2023-06-05T12:00:38;26.50;99.90
19868;DHT22;10096;51.112;6.776;2023-06-05T12:03:17;26.50;99.90
19868;DHT22;10096;51.112;6.776;2023-06-05T12:05:44;26.70;99.90
19868;DHT22;10096;51.112;6.776;2023-06-05T12:08:24;26.70;99.90
19868;DHT22;10096;51.112;6.776;2023-06-05T12:10:55;26.90;99.90
19868;DHT22;10096;51.112;6.776;2023-06-05T12:13:22;26.80;99.90
19868;DHT22;10096;51.112;6.776;2023-06-05T12:15:59;26.70;99.90
19868;DHT22;10096;51.112;6.776;2023-06-05T12:18:33;26.80;99.90
19868;DHT22;10096;51.112;6.776;2023-06-05T12:21:01;26.90;99.90
19868;DHT22;10096;51.112;6.776;2023-06-05T12:23:31;26.90;99.90
19868;DHT22;10096;51.112;6.776;2023-06-05T12:26:00;26.80;99.90
19868;DHT22;10096;51.112;6.776;2023-06-05T12:28:29;26.60;99.90
19868;DHT22;10096;51.112;6.776;2023-06-05T12:30:57;27.10;99.90
19868;DHT22;10096;51.112;6.776;2023-06-05T12:33:25;27.20;99.90
19868;DHT22;10096;51.112;6.776;2023-06-05T12:36:05;27.00;99.90
19868;DHT22;10096;51.112;6.776;2023-06-05T12:38:42;26.70;99.90
19868;DHT22;10096;51.112;6.776;2023-06-05T12:41:17;26.40;99.90
19868;DHT22;10096;51.112;6.776;2023-06-05T12:43:47;26.60;99.90
19868;DHT22;10096;51.112;6.776;2023-06-05T12:46:25;26.70;99.90
19868;DHT22;10096;51.112;6.776;2023-06-05T12:48:52;26.70;99.90
19868;DHT22;10096;51.112;6.776;2023-06-05T12:51:24;27.10;99.90
19868;DHT22;10096;51.112;6.776;2023-06-05T12:53:52;27.00;99.90
19868;DHT22;10096;51.112;6.776;2023-06-05T12:56:21;27.20;99.90
19868;DHT22;10096;51.112;6.776;2023-06-05T12:58:54;27.30;99.90
19868;DHT22;10096;51.112;6.776;2023-06-05T13:01:24;27.20;99.90
19868;DHT22;10096;51.112;6.776;2023-06-05T13:03:52;27.00;99.90
19868;DHT22;10096;51.112;6.776;2023-06-05T13:06:29;27.00;99.90
19868;DHT22;10096;51.112;6.776;2023-06-05T13:08:59;27.30;99.90
19868;DHT22;10096;51.112;6.776;2023-06-05T13:11:31;27.00;99.90
19868;DHT22;10096;51.112;6.776;2023-06-05T13:14:01;27.00;99.90
19868;DHT22;10096;51.112;6.776;2023-06-05T13:16:29;26.90;99.90
19868;DHT22;10096;51.112;6.776;2023-06-05T13:18:59;27.00;99.90
19868;DHT22;10096;51.112;6.776;2023-06-05T13:21:30;27.10;99.90
19868;DHT22;10096;51.112;6.776;2023-06-05T13:23:59;26.90;99.90
19868;DHT22;10096;51.112;6.776;2023-06-05T13:26:32;27.00;99.90
19868;DHT22;10096;51.112;6.776;2023-06-05T13:28:59;27.00;99.90
19868;DHT22;10096;51.112;6.776;2023-06-05T13:31:27;27.00;99.90
19868;DHT22;10096;51.112;6.776;2023-06-05T13:33:56;27.30;99.90
19868;DHT22;10096;51.112;6.776;2023-06-05T13:36:24;27.00;99.90
19868;DHT22;10096;51.112;6.776;2023-06-05T13:38:54;27.10;99.90
19868;DHT22;10096;51.112;6.776;2023-06-05T13:41:22;27.20;99.90
19868;DHT22;10096;51.112;6.776;2023-06-05T13:43:54;27.20;99.90
19868;DHT22;10096;51.112;6.776;2023-06-05T13:46:36;26.60;99.90
19868;DHT22;10096;51.112;6.776;2023-06-05T13:49:06;26.70;99.90
19868;DHT22;10096;51.112;6.776;2023-06-05T13:51:34;26.80;99.90
19868;DHT22;10096;51.112;6.776;2023-06-05T13:54:04;26.70;99.90
19868;DHT22;10096;51.112;6.776;2023-06-05T13:56:34;26.90;99.90
19868;DHT22;10096;51.112;6.776;2023-06-05T13:59:05;26.90;99.90
19868;DHT22;10096;51.112;6.776;2023-06-05T14:01:33;26.80;99.90
19868;DHT22;10096;51.112;6.776;2023-06-05T14:04:00;26.80;99.90
19868;DHT22;10096;51.112;6.776;2023-06-05T14:06:30;26.80;99.90
19868;DHT22;10096;51.112;6.776;2023-06-05T14:09:07;26.70;99.90
19868;DHT22;10096;51.112;6.776;2023-06-05T14:11:37;26.70;99.90
19868;DHT22;10096;51.112;6.776;2023-06-05T14:14:14;26.90;99.90
19868;DHT22;10096;51.112;6.776;2023-06-05T14:16:44;26.80;99.90
19868;DHT22;10096;51.112;6.776;2023-06-05T14:19:12;26.60;99.90
19868;DHT22;10096;51.112;6.776;2023-06-05T14:21:41;26.60;99.90
19868;DHT22;10096;51.112;6.776;2023-06-05T14:24:10;26.70;99.90
19868;DHT22;10096;51.112;6.776;2023-06-05T14:26:40;26.30;99.90
19868;DHT22;10096;51.112;6.776;2023-06-05T14:29:08;26.60;99.90
19868;DHT22;10096;51.112;6.776;2023-06-05T14:31:37;26.70;99.90
19868;DHT22;10096;51.112;6.776;2023-06-05T14:34:06;26.80;99.90
19868;DHT22;10096;51.112;6.776;2023-06-05T14:36:35;26.70;99.90
19868;DHT22;10096;51.112;6.776;2023-06-05T14:39:03;26.90;99.90
19868;DHT22;10096;51.112;6.776;2023-06-05T14:41:32;26.90;99.90
19868;DHT22;10096;51.112;6.776;2023-06-05T14:44:02;26.90;99.90
19868;DHT22;10096;51.112;6.776;2023-06-05T14:46:30;26.80;99.90
19868;DHT22;10096;51.112;6.776;2023-06-05T14:49:02;26.80;99.90
19868;DHT22;10096;51.112;6.776;2023-06-05T14:51:32;26.90;99.90
19868;DHT22;10096;51.112;6.776;2023-06-05T14:54:05;26.90;99.90
19868;DHT22;10096;51.112;6.776;2023-06-05T14:56:54;26.70;99.90
19868;DHT22;10096;51.112;6.776;2023-06-05T14:59:28;26.80;99.90
19868;DHT22;10096;51.112;6.776;2023-06-05T15:02:05;26.80;99.90
19868;DHT22;10096;51.112;6.776;2023-06-05T15:04:37;26.80;99.90
19868;DHT22;10096;51.112;6.776;2023-06-05T15:07:35;26.80;99.90
19868;DHT22;10096;51.112;6.776;2023-06-05T15:10:04;26.50;99.90
19868;DHT22;10096;51.112;6.776;2023-06-05T15:12:36;26.30;99.90
19868;DHT22;10096;51.112;6.776;2023-06-05T15:15:08;26.70;99.90
19868;DHT22;10096;51.112;6.776;2023-06-05T15:17:36;26.70;99.90
19868;DHT22;10096;51.112;6.776;2023-06-05T15:20:08;26.50;99.90
19868;DHT22;10096;51.112;6.776;2023-06-05T15:22:36;26.60;99.90
19868;DHT22;10096;51.112;6.776;2023-06-05T15:25:04;26.50;99.90
19868;DHT22;10096;51.112;6.776;2023-06-05T15:27:31;26.40;99.90
19868;DHT22;10096;51.112;6.776;2023-06-05T15:29:59;26.50;99.90
19868;DHT22;10096;51.112;6.776;2023-06-05T15:32:27;26.70;99.90
19868;DHT22;10096;51.112;6.776;2023-06-05T15:34:55;26.60;99.90
19868;DHT22;10096;51.112;6.776;2023-06-05T15:37:24;26.40;99.90
19868;DHT22;10096;51.112;6.776;2023-06-05T15:39:52;26.40;99.90
19868;DHT22;10096;51.112;6.776;2023-06-05T15:42:28;26.40;99.90
19868;DHT22;10096;51.112;6.776;2023-06-05T15:45:07;26.40;99.90
19868;DHT22;10096;51.112;6.776;2023-06-05T15:47:39;26.40;99.90
19868;DHT22;10096;51.112;6.776;2023-06-05T15:50:08;26.50;99.90
19868;DHT22;10096;51.112;6.776;2023-06-05T15:52:38;26.40;99.90
19868;DHT22;10096;51.112;6.776;2023-06-05T15:55:07;26.30;99.90
19868;DHT22;10096;51.112;6.776;2023-06-05T15:57:39;26.30;99.90
19868;DHT22;10096;51.112;6.776;2023-06-05T16:00:09;25.90;99.90